Time;durP1;ratioP1;P1;durP2;ratioP2;P2;SDS_P1;SDS_P2;PMS_P1;PMS_P2;Temp;Humidity;BMP_temperature;BMP_pressure;BME280_temperature;BME280_humidity;BME280_pressure;Samples;Min_cycle;Max_cycle;Signal;HPM_P1;HPM_P2
2022/07/15 00:01:50;;;;;;;5.85;1.80;;;15.70;99.90;;;;;;5096536;28;20490;-62
2022/07/15 00:04:16;;;;;;;7.20;2.10;;;15.70;99.90;;;;;;5101941;28;20537;-63
2022/07/15 00:06:41;;;;;;;6.45;1.88;;;15.70;99.90;;;;;;5102657;28;20039;-62
2022/07/15 00:09:07;;;;;;;6.72;2.30;;;15.60;99.90;;;;;;5099037;28;20036;-63
2022/07/15 00:11:33;;;;;;;7.13;2.30;;;15.60;99.90;;;;;;5100023;28;20051;-63
2022/07/15 00:13:58;;;;;;;7.38;2.00;;;15.60;99.90;;;;;;5100224;28;20170;-63
2022/07/15 00:16:24;;;;;;;9.00;1.90;;;15.60;99.90;;;;;;5102000;28;20048;-62
2022/07/15 00:18:50;;;;;;;5.95;2.20;;;15.50;99.90;;;;;;5098486;28;20051;-62
2022/07/15 00:21:15;;;;;;;7.28;2.85;;;15.50;99.90;;;;;;5099818;28;20035;-63
2022/07/15 00:23:41;;;;;;;8.25;2.40;;;15.50;99.90;;;;;;5103752;28;20040;-62
2022/07/15 00:26:07;;;;;;;8.45;2.08;;;15.50;99.90;;;;;;5099496;28;20048;-62
2022/07/15 00:28:32;;;;;;;9.73;2.45;;;15.50;99.90;;;;;;5102174;28;20063;-63
2022/07/15 00:30:58;;;;;;;8.18;2.17;;;15.50;99.90;;;;;;5104434;28;20043;-63
2022/07/15 00:33:23;;;;;;;7.47;1.98;;;15.50;99.90;;;;;;5104041;28;20574;-63
2022/07/15 00:35:49;;;;;;;6.55;2.40;;;15.50;99.90;;;;;;5104140;28;20169;-63
2022/07/15 00:38:15;;;;;;;7.60;2.40;;;15.60;99.90;;;;;;5104664;28;20088;-63
2022/07/15 00:40:46;;;;;;;6.00;1.83;;;15.60;99.90;;;;;;5107618;28;20103;-63
2022/07/15 00:43:12;;;;;;;9.48;1.90;;;15.60;99.90;;;;;;5104645;28;20389;-63
2022/07/15 00:45:38;;;;;;;8.38;2.10;;;15.60;99.90;;;;;;5105579;28;20040;-63
2022/07/15 00:48:04;;;;;;;5.43;1.92;;;15.60;99.90;;;;;;5106442;28;20044;-63
2022/07/15 00:50:31;;;;;;;4.72;1.50;;;15.70;99.90;;;;;;5106840;28;20039;-63
2022/07/15 00:53:08;;;;;;;6.40;1.90;;;15.60;99.90;;;;;;5110551;28;20088;-62
2022/07/15 00:55:45;;;;;;;8.77;2.10;;;15.70;99.90;;;;;;5106038;28;20101;-63
2022/07/15 00:58:23;;;;;;;7.38;1.80;;;15.70;99.90;;;;;;5104299;28;20119;-62
2022/07/15 01:00:50;;;;;;;6.18;1.65;;;15.70;99.90;;;;;;5101804;28;20040;-63
2022/07/15 01:03:19;;;;;;;5.22;1.80;;;15.80;99.90;;;;;;5110100;28;20384;-63
2022/07/15 01:05:47;;;;;;;7.40;2.00;;;15.70;99.90;;;;;;5108416;28;20101;-62
2022/07/15 01:08:13;;;;;;;9.05;1.70;;;15.80;99.90;;;;;;5105781;28;21823;-62
2022/07/15 01:10:40;;;;;;;6.57;2.03;;;15.80;99.90;;;;;;5100582;28;22180;-63
2022/07/15 01:13:05;;;;;;;8.60;2.00;;;15.80;99.90;;;;;;5110650;28;20093;-62
2022/07/15 01:15:33;;;;;;;6.97;1.70;;;15.80;99.90;;;;;;5099685;28;20047;-62
2022/07/15 01:18:01;;;;;;;6.78;1.77;;;15.80;99.90;;;;;;5105762;28;20035;-63
2022/07/15 01:20:27;;;;;;;6.82;1.40;;;15.80;99.90;;;;;;5103170;28;20094;-63
2022/07/15 01:22:53;;;;;;;7.82;1.75;;;15.90;99.90;;;;;;5101879;28;20630;-62
2022/07/15 01:25:18;;;;;;;9.82;1.83;;;15.90;99.90;;;;;;5105879;28;20146;-63
2022/07/15 01:27:44;;;;;;;6.32;1.77;;;15.90;99.90;;;;;;5105793;28;20059;-63
2022/07/15 01:30:11;;;;;;;7.90;1.70;;;15.90;99.90;;;;;;5100432;28;20115;-62
2022/07/15 01:32:37;;;;;;;7.82;2.20;;;16.00;99.90;;;;;;5103017;28;20056;-63
2022/07/15 01:35:03;;;;;;;8.60;1.95;;;16.00;99.90;;;;;;5107610;28;20046;-63
2022/07/15 01:37:28;;;;;;;7.45;1.60;;;15.90;99.90;;;;;;5103877;28;20487;-63
2022/07/15 01:39:54;;;;;;;6.70;1.50;;;16.00;99.90;;;;;;5105607;28;20071;-63
2022/07/15 01:42:20;;;;;;;8.57;1.90;;;16.00;99.90;;;;;;5100423;28;20450;-63
2022/07/15 01:44:46;;;;;;;11.32;2.15;;;15.90;99.90;;;;;;5103197;28;20055;-63
2022/07/15 01:47:11;;;;;;;7.43;1.75;;;15.90;99.90;;;;;;5108107;28;20112;-62
2022/07/15 01:49:37;;;;;;;6.68;1.73;;;15.80;99.90;;;;;;5107801;28;20035;-63
2022/07/15 01:52:03;;;;;;;9.60;2.30;;;15.80;99.90;;;;;;5104306;28;20039;-63
2022/07/15 01:54:30;;;;;;;6.63;1.63;;;15.80;99.90;;;;;;5106287;28;20044;-63
2022/07/15 01:56:56;;;;;;;9.45;1.73;;;15.80;99.90;;;;;;5103874;28;20036;-63
2022/07/15 01:59:24;;;;;;;7.32;1.85;;;15.70;99.90;;;;;;5105442;28;20050;-63
2022/07/15 02:01:51;;;;;;;7.57;1.60;;;15.70;99.90;;;;;;5103698;28;20398;-62
2022/07/15 02:04:17;;;;;;;5.22;1.45;;;15.70;99.90;;;;;;5109269;28;20065;-63
2022/07/15 02:06:43;;;;;;;7.60;1.90;;;15.70;99.90;;;;;;5099039;28;20047;-62
2022/07/15 02:09:09;;;;;;;7.60;1.77;;;15.70;99.90;;;;;;5102708;28;20032;-62
2022/07/15 02:11:35;;;;;;;6.85;1.73;;;15.70;99.90;;;;;;5105562;28;20043;-62
2022/07/15 02:14:01;;;;;;;7.38;1.92;;;15.70;99.90;;;;;;5109114;28;20055;-63
2022/07/15 02:16:31;;;;;;;7.50;1.90;;;15.70;99.90;;;;;;5104236;28;20036;-63
2022/07/15 02:18:57;;;;;;;8.40;1.92;;;15.70;99.90;;;;;;5103982;28;20039;-63
2022/07/15 02:21:24;;;;;;;9.38;2.13;;;15.70;99.90;;;;;;5105332;28;20044;-63
2022/07/15 02:23:49;;;;;;;7.88;2.10;;;15.60;99.90;;;;;;5106895;28;20059;-63
2022/07/15 02:26:15;;;;;;;6.72;2.13;;;15.70;99.90;;;;;;5106397;28;20044;-63
2022/07/15 02:28:42;;;;;;;8.65;1.95;;;15.60;99.90;;;;;;5106651;28;20035;-63
2022/07/15 02:31:08;;;;;;;8.25;2.10;;;15.60;99.90;;;;;;5105563;28;20642;-63
2022/07/15 02:33:33;;;;;;;9.35;2.05;;;15.60;99.90;;;;;;5107590;28;20047;-63
2022/07/15 02:35:59;;;;;;;7.47;1.70;;;15.60;99.90;;;;;;5106005;28;20055;-63
2022/07/15 02:38:24;;;;;;;6.32;1.80;;;15.60;99.90;;;;;;5105143;28;20044;-62
2022/07/15 02:40:50;;;;;;;8.52;1.80;;;15.60;99.90;;;;;;5104811;28;20040;-62
2022/07/15 02:43:16;;;;;;;7.63;1.75;;;15.60;99.90;;;;;;5108877;28;20085;-62
2022/07/15 02:45:42;;;;;;;7.10;2.00;;;15.50;99.90;;;;;;5102803;28;20458;-62
2022/07/15 02:48:09;;;;;;;8.70;1.92;;;15.50;99.90;;;;;;5107978;28;20039;-62
2022/07/15 02:50:35;;;;;;;5.15;1.40;;;15.50;99.90;;;;;;5103062;28;20492;-63
2022/07/15 02:53:02;;;;;;;10.68;1.90;;;15.40;99.90;;;;;;5100883;28;20038;-63
2022/07/15 02:55:28;;;;;;;9.93;1.95;;;15.40;99.90;;;;;;5105446;28;20699;-62
2022/07/15 02:57:54;;;;;;;5.38;1.67;;;15.30;99.90;;;;;;5103478;28;20036;-62
2022/07/15 03:00:20;;;;;;;8.00;1.90;;;15.30;99.90;;;;;;5102726;28;20036;-62
2022/07/15 03:02:46;;;;;;;7.78;1.85;;;15.20;99.90;;;;;;5103800;28;20096;-62
2022/07/15 03:05:12;;;;;;;6.70;1.70;;;15.20;99.90;;;;;;5106669;28;20036;-63
2022/07/15 03:07:39;;;;;;;6.43;1.73;;;15.10;99.90;;;;;;5105420;28;20101;-63
2022/07/15 03:10:06;;;;;;;7.40;1.63;;;15.10;99.90;;;;;;5100792;28;20609;-62
2022/07/15 03:12:32;;;;;;;7.40;2.00;;;15.10;99.90;;;;;;5108046;28;20118;-63
2022/07/15 03:14:58;;;;;;;7.65;1.80;;;15.00;99.90;;;;;;5099608;28;20131;-63
2022/07/15 03:17:24;;;;;;;6.60;2.00;;;15.00;99.90;;;;;;5100508;28;20097;-62
2022/07/15 03:19:49;;;;;;;6.18;1.70;;;14.90;99.90;;;;;;5103941;28;20455;-63
2022/07/15 03:22:15;;;;;;;9.23;1.83;;;14.90;99.90;;;;;;5101988;28;20040;-62
2022/07/15 03:24:41;;;;;;;8.45;2.05;;;14.80;99.90;;;;;;5105775;28;20035;-62
2022/07/15 03:27:08;;;;;;;6.65;1.80;;;14.80;99.90;;;;;;5102036;28;20032;-62
2022/07/15 03:29:34;;;;;;;7.88;1.80;;;14.80;99.90;;;;;;5105046;28;20424;-63
2022/07/15 03:31:59;;;;;;;8.75;1.88;;;14.70;99.90;;;;;;5101981;28;20107;-62
2022/07/15 03:34:25;;;;;;;9.30;1.95;;;14.70;99.90;;;;;;5102928;28;20462;-63
2022/07/15 03:36:51;;;;;;;6.40;2.13;;;14.70;99.90;;;;;;5103627;28;20154;-62
2022/07/15 03:39:17;;;;;;;7.03;1.73;;;14.60;99.90;;;;;;5103942;28;20040;-62
2022/07/15 03:41:42;;;;;;;6.93;1.75;;;14.60;99.90;;;;;;5105920;28;20035;-62
2022/07/15 03:44:08;;;;;;;7.03;1.90;;;14.60;99.90;;;;;;5105480;28;20038;-62
2022/07/15 03:46:34;;;;;;;8.27;1.83;;;14.50;99.90;;;;;;5100647;28;20811;-62
2022/07/15 03:49:02;;;;;;;5.88;1.75;;;14.50;99.90;;;;;;5105464;28;20035;-62
2022/07/15 03:51:31;;;;;;;7.85;1.73;;;14.50;99.90;;;;;;5103425;28;20043;-63
2022/07/15 03:54:02;;;;;;;8.63;2.15;;;14.50;99.90;;;;;;5097448;28;20047;-63
2022/07/15 03:56:28;;;;;;;9.35;2.15;;;14.60;99.90;;;;;;5102394;28;20043;-62
2022/07/15 03:58:54;;;;;;;7.03;1.90;;;14.60;99.90;;;;;;5103563;28;20060;-63
2022/07/15 04:01:21;;;;;;;8.55;1.90;;;14.60;99.90;;;;;;5103699;28;20032;-62
2022/07/15 04:03:50;;;;;;;8.45;2.53;;;14.50;99.90;;;;;;5101622;28;20054;-62
2022/07/15 04:06:16;;;;;;;6.15;1.80;;;14.60;99.90;;;;;;5104464;28;20376;-62
2022/07/15 04:08:43;;;;;;;5.07;1.58;;;14.60;99.90;;;;;;5102081;28;20103;-62
2022/07/15 04:11:09;;;;;;;6.63;2.00;;;14.60;99.90;;;;;;5101490;28;20113;-62
2022/07/15 04:13:35;;;;;;;8.27;2.03;;;14.60;99.90;;;;;;5105805;28;20512;-62
2022/07/15 04:16:01;;;;;;;8.75;1.67;;;14.70;99.90;;;;;;5098846;28;20188;-62
2022/07/15 04:18:26;;;;;;;6.85;1.85;;;14.80;99.90;;;;;;5104865;28;20078;-62
2022/07/15 04:20:52;;;;;;;7.03;1.65;;;14.80;99.90;;;;;;5101472;28;20070;-62
2022/07/15 04:23:18;;;;;;;6.22;1.98;;;14.80;99.90;;;;;;5107929;28;20051;-62
2022/07/15 04:25:43;;;;;;;8.23;1.52;;;14.90;99.90;;;;;;5098681;28;20051;-62
2022/07/15 04:28:09;;;;;;;6.75;1.70;;;14.90;99.90;;;;;;5102688;28;20031;-62
2022/07/15 04:30:35;;;;;;;7.13;1.52;;;14.90;99.90;;;;;;5099801;28;20084;-63
2022/07/15 04:33:00;;;;;;;5.28;1.63;;;14.90;99.90;;;;;;5097668;28;20058;-62
2022/07/15 04:35:26;;;;;;;7.00;1.50;;;14.90;99.90;;;;;;5100119;28;20048;-62
2022/07/15 04:37:52;;;;;;;7.05;1.63;;;15.00;99.90;;;;;;5099121;28;20040;-62
2022/07/15 04:40:18;;;;;;;5.35;1.70;;;15.00;99.90;;;;;;5098700;28;20039;-62
2022/07/15 04:42:44;;;;;;;6.45;1.60;;;15.10;99.90;;;;;;5099217;28;20046;-62
2022/07/15 04:45:10;;;;;;;9.05;1.73;;;15.10;99.90;;;;;;5095747;28;20036;-63
2022/07/15 04:47:35;;;;;;;6.45;1.70;;;15.30;99.90;;;;;;5099848;28;20391;-62
2022/07/15 04:52:46;;;;;;;6.00;1.52;;;15.60;99.90;;;;;;5099743;28;20056;-62
2022/07/15 04:55:13;;;;;;;5.25;1.33;;;15.60;99.90;;;;;;5099530;28;20047;-62
2022/07/15 04:57:39;;;;;;;7.68;1.55;;;15.80;99.90;;;;;;5099014;28;20040;-62
2022/07/15 05:00:06;;;;;;;7.38;1.40;;;15.80;99.90;;;;;;5096669;28;20046;-62
2022/07/15 05:02:31;;;;;;;5.93;1.35;;;15.90;99.90;;;;;;5098022;28;20040;-61
2022/07/15 05:04:58;;;;;;;6.90;1.10;;;16.00;99.90;;;;;;5098243;28;20092;-62
2022/07/15 05:07:24;;;;;;;7.63;1.55;;;16.00;99.90;;;;;;5104161;28;20154;-62
2022/07/15 05:09:49;;;;;;;5.47;1.20;;;16.10;99.90;;;;;;5100277;28;20146;-62
2022/07/15 05:12:15;;;;;;;7.05;1.20;;;16.20;99.90;;;;;;5102322;28;20044;-62
2022/07/15 05:14:41;;;;;;;4.53;1.15;;;16.30;99.90;;;;;;5110007;28;20080;-62
2022/07/15 05:17:07;;;;;;;7.07;1.60;;;16.20;99.90;;;;;;5103510;28;20039;-63
2022/07/15 05:19:33;;;;;;;3.92;1.00;;;16.20;99.90;;;;;;5106278;28;20461;-64
2022/07/15 05:21:59;;;;;;;4.50;0.98;;;16.20;99.90;;;;;;5104718;28;20043;-62
2022/07/15 05:24:25;;;;;;;2.75;0.95;;;16.20;99.90;;;;;;5106788;28;20151;-62
2022/07/15 05:26:51;;;;;;;5.80;1.23;;;16.40;99.90;;;;;;5105704;28;20089;-62
2022/07/15 05:29:16;;;;;;;4.95;1.10;;;16.50;99.90;;;;;;5103124;28;20437;-62
2022/07/15 05:31:42;;;;;;;4.78;1.00;;;16.60;99.90;;;;;;5105296;28;20120;-62
2022/07/15 05:34:08;;;;;;;5.28;1.13;;;16.80;99.90;;;;;;5106563;28;20067;-63
2022/07/15 05:36:33;;;;;;;4.78;1.00;;;16.90;99.90;;;;;;5103270;28;20098;-63
2022/07/15 05:38:59;;;;;;;4.82;1.00;;;17.10;99.90;;;;;;5085928;28;20047;-63
2022/07/15 05:41:25;;;;;;;2.90;0.90;;;17.20;99.90;;;;;;5105545;28;20913;-65
2022/07/15 05:43:50;;;;;;;4.13;0.90;;;17.30;99.90;;;;;;5104933;28;21956;-61
2022/07/15 05:46:16;;;;;;;2.22;0.88;;;17.50;99.90;;;;;;5099046;28;20100;-63
2022/07/15 05:48:41;;;;;;;3.42;0.80;;;17.60;99.90;;;;;;5101063;28;20078;-62
2022/07/15 05:51:07;;;;;;;2.97;0.80;;;17.70;99.90;;;;;;5102049;28;20043;-63
2022/07/15 05:53:33;;;;;;;3.53;0.80;;;17.80;99.90;;;;;;5100950;28;20132;-63
2022/07/15 05:55:59;;;;;;;4.18;0.82;;;17.80;99.90;;;;;;5106425;28;20126;-63
2022/07/15 05:58:25;;;;;;;4.25;0.90;;;18.00;99.90;;;;;;5104146;28;20483;-63
2022/07/15 06:00:51;;;;;;;4.97;0.80;;;18.20;99.90;;;;;;5110345;28;20046;-63
2022/07/15 06:03:17;;;;;;;2.78;0.70;;;18.20;99.50;;;;;;5109308;28;20103;-63
2022/07/15 06:05:43;;;;;;;4.88;0.93;;;18.40;99.30;;;;;;5107517;28;20455;-64
2022/07/15 06:08:08;;;;;;;1.55;0.60;;;18.40;98.80;;;;;;5102730;28;20040;-64
2022/07/15 06:10:34;;;;;;;3.70;0.65;;;18.30;98.80;;;;;;5107153;28;20063;-64
2022/07/15 06:13:00;;;;;;;1.55;0.60;;;18.40;98.80;;;;;;5111615;28;20043;-63
2022/07/15 06:15:26;;;;;;;3.47;0.68;;;18.50;98.30;;;;;;5102121;28;20351;-63
2022/07/15 06:17:53;;;;;;;3.33;0.73;;;18.50;98.10;;;;;;5111581;28;20114;-63
2022/07/15 06:20:19;;;;;;;2.13;0.60;;;18.50;97.80;;;;;;5110586;28;20446;-63
2022/07/15 06:22:45;;;;;;;2.85;0.75;;;18.60;97.70;;;;;;5109895;28;20056;-63
2022/07/15 06:25:11;;;;;;;1.35;0.50;;;18.60;97.50;;;;;;5110726;28;20135;-63
2022/07/15 06:27:36;;;;;;;2.38;0.50;;;18.70;97.10;;;;;;5110094;28;20044;-63
2022/07/15 06:30:02;;;;;;;1.92;0.63;;;18.80;97.10;;;;;;5105038;28;20178;-64
2022/07/15 06:32:28;;;;;;;3.92;0.50;;;18.80;96.50;;;;;;5103193;28;20043;-64
2022/07/15 06:34:54;;;;;;;1.90;0.40;;;18.80;95.90;;;;;;5105120;28;20044;-65
2022/07/15 06:37:19;;;;;;;2.40;0.55;;;18.80;95.70;;;;;;5110957;28;20055;-63
2022/07/15 06:39:45;;;;;;;2.00;0.50;;;18.90;95.30;;;;;;5110034;28;20085;-63
2022/07/15 06:42:11;;;;;;;2.53;0.50;;;18.80;95.20;;;;;;5107503;28;20067;-63
2022/07/15 06:44:36;;;;;;;3.03;0.60;;;18.80;94.70;;;;;;5104047;28;20075;-63
2022/07/15 06:47:03;;;;;;;2.60;0.40;;;18.90;94.60;;;;;;5106137;28;20116;-63
2022/07/15 06:49:29;;;;;;;2.42;0.60;;;18.90;94.10;;;;;;5108442;28;20532;-62
2022/07/15 06:51:55;;;;;;;4.57;0.70;;;18.70;94.10;;;;;;5108481;28;20546;-63
2022/07/15 06:54:21;;;;;;;3.33;0.65;;;18.90;93.90;;;;;;5108971;28;20043;-63
2022/07/15 06:56:47;;;;;;;2.33;0.40;;;18.80;93.90;;;;;;5107657;28;20085;-62
2022/07/15 06:59:13;;;;;;;1.40;0.40;;;19.00;94.00;;;;;;5103115;28;20047;-63
2022/07/15 07:01:38;;;;;;;1.23;0.45;;;19.10;94.10;;;;;;5106503;28;20131;-62
2022/07/15 07:04:04;;;;;;;2.58;0.43;;;19.20;93.90;;;;;;5107991;28;20059;-63
2022/07/15 07:06:30;;;;;;;1.67;0.40;;;19.40;93.80;;;;;;5109281;28;20062;-62
2022/07/15 07:08:55;;;;;;;2.33;0.55;;;19.40;93.10;;;;;;5108605;28;20047;-62
2022/07/15 07:11:21;;;;;;;3.92;0.50;;;19.50;92.90;;;;;;5107299;28;20031;-62
2022/07/15 07:13:48;;;;;;;1.42;0.40;;;19.60;92.60;;;;;;5108769;28;20276;-63
2022/07/15 07:16:13;;;;;;;1.67;0.40;;;19.60;92.50;;;;;;5106398;28;20172;-63
2022/07/15 07:18:40;;;;;;;1.50;0.38;;;19.60;91.90;;;;;;5107106;28;20591;-64
2022/07/15 07:21:05;;;;;;;1.90;0.50;;;19.70;91.80;;;;;;5104942;28;20453;-63
2022/07/15 07:23:31;;;;;;;3.83;0.70;;;19.80;91.70;;;;;;5109358;28;20105;-63
2022/07/15 07:25:58;;;;;;;3.63;0.70;;;19.80;91.30;;;;;;5106269;28;20498;-63
2022/07/15 07:28:23;;;;;;;3.30;0.65;;;19.90;90.70;;;;;;5107383;28;20032;-63
2022/07/15 07:30:50;;;;;;;0.45;0.40;;;20.00;90.50;;;;;;5106861;28;20043;-63
2022/07/15 07:33:16;;;;;;;1.63;0.52;;;20.00;90.30;;;;;;5107750;28;20080;-64
2022/07/15 07:35:43;;;;;;;1.60;0.40;;;20.00;89.90;;;;;;5098896;28;20132;-64
2022/07/15 07:38:09;;;;;;;2.05;0.40;;;19.90;89.10;;;;;;5104670;28;20055;-64
2022/07/15 07:40:34;;;;;;;1.45;0.35;;;19.90;89.10;;;;;;5107197;28;20482;-63
2022/07/15 07:43:00;;;;;;;1.65;0.38;;;20.00;89.70;;;;;;5106879;28;20036;-64
2022/07/15 07:45:28;;;;;;;1.83;0.40;;;20.10;89.70;;;;;;5104987;28;20127;-63
2022/07/15 07:47:55;;;;;;;1.00;0.45;;;20.10;88.30;;;;;;5106845;28;20095;-64
2022/07/15 07:50:21;;;;;;;1.60;0.47;;;20.00;88.30;;;;;;5107759;28;20137;-64
2022/07/15 07:52:47;;;;;;;0.90;0.40;;;20.10;88.10;;;;;;5108786;28;20036;-63
2022/07/15 07:55:14;;;;;;;0.82;0.30;;;20.20;87.90;;;;;;5108133;28;20515;-63
2022/07/15 07:58:06;;;;;;;2.13;0.47;;;20.20;88.00;;;;;;5105157;28;20063;-64
2022/07/15 08:00:32;;;;;;;0.70;0.40;;;20.20;86.20;;;;;;5093268;28;20083;-63
2022/07/15 08:02:59;;;;;;;0.65;0.20;;;20.30;88.00;;;;;;5107955;28;20534;-63
2022/07/15 08:05:26;;;;;;;2.20;0.38;;;20.50;87.80;;;;;;5104874;28;20036;-64
2022/07/15 08:08:15;;;;;;;0.88;0.30;;;20.60;86.40;;;;;;5105772;28;20039;-64
2022/07/15 08:10:44;;;;;;;1.88;0.38;;;20.70;85.20;;;;;;5107875;28;20078;-64
2022/07/15 08:13:10;;;;;;;1.80;0.60;;;20.90;85.60;;;;;;5106476;28;20089;-64
2022/07/15 08:15:36;;;;;;;2.20;0.40;;;21.00;84.60;;;;;;5103006;28;20436;-64
2022/07/15 08:18:02;;;;;;;1.33;0.40;;;20.90;84.20;;;;;;5106120;28;20093;-63
2022/07/15 08:20:29;;;;;;;1.15;0.30;;;20.80;84.40;;;;;;5105862;28;20039;-63
2022/07/15 08:22:58;;;;;;;1.75;0.50;;;20.80;85.00;;;;;;5107424;28;20386;-64
2022/07/15 08:25:32;;;;;;;2.30;0.50;;;21.00;84.70;;;;;;5106974;28;20052;-64
2022/07/15 08:27:59;;;;;;;2.15;0.40;;;21.20;82.60;;;;;;5105689;28;20094;-64
2022/07/15 08:30:26;;;;;;;1.63;0.45;;;21.40;82.20;;;;;;5107342;28;20081;-63
2022/07/15 08:32:52;;;;;;;1.60;0.47;;;21.40;82.00;;;;;;5107064;28;20112;-63
2022/07/15 08:35:18;;;;;;;1.27;0.30;;;21.50;81.40;;;;;;5105670;28;20129;-63
2022/07/15 08:37:43;;;;;;;1.45;0.50;;;21.50;81.10;;;;;;5107707;28;20047;-64
2022/07/15 08:40:10;;;;;;;3.45;0.40;;;21.60;80.40;;;;;;5107443;28;20035;-63
2022/07/15 08:42:39;;;;;;;1.80;0.45;;;21.70;80.20;;;;;;5106372;28;20043;-63
2022/07/15 08:45:06;;;;;;;2.00;0.30;;;21.70;79.40;;;;;;5102738;28;20048;-64
2022/07/15 08:47:32;;;;;;;1.20;0.30;;;21.80;78.80;;;;;;5104679;28;20055;-63
2022/07/15 08:49:59;;;;;;;0.98;0.40;;;21.70;78.80;;;;;;5103803;28;20051;-64
2022/07/15 08:52:25;;;;;;;0.82;0.30;;;21.80;78.20;;;;;;5098151;28;20040;-63
2022/07/15 08:54:51;;;;;;;1.17;0.40;;;21.90;77.80;;;;;;5107382;28;20110;-64
2022/07/15 08:57:17;;;;;;;1.30;0.50;;;22.10;76.90;;;;;;5104920;28;20066;-63
2022/07/15 08:59:45;;;;;;;1.23;0.40;;;22.00;75.90;;;;;;5109862;28;20043;-63
2022/07/15 09:02:12;;;;;;;0.95;0.40;;;22.20;76.40;;;;;;5104365;28;20074;-63
2022/07/15 09:05:15;;;;;;;2.58;0.32;;;22.30;75.50;;;;;;5111634;28;20071;-64
2022/07/15 09:08:10;;;;;;;1.25;0.25;;;22.40;74.10;;;;;;5110220;28;20414;-63
2022/07/15 09:10:59;;;;;;;0.87;0.20;;;22.60;71.40;;;;;;5108941;28;20083;-64
2022/07/15 09:13:34;;;;;;;0.85;0.40;;;22.40;71.40;;;;;;5109025;27;20313;-64
2022/07/15 09:16:08;;;;;;;1.38;0.40;;;22.20;71.70;;;;;;5106453;28;20116;-64
2022/07/15 09:18:40;;;;;;;1.98;0.40;;;22.10;71.50;;;;;;5104568;28;20043;-63
2022/07/15 09:21:19;;;;;;;1.05;0.40;;;22.00;71.60;;;;;;5109499;28;20058;-63
2022/07/15 09:23:45;;;;;;;2.28;0.32;;;22.10;72.00;;;;;;5105298;28;20122;-63
2022/07/15 09:26:32;;;;;;;0.32;0.22;;;22.10;71.90;;;;;;5110250;28;20115;-63
2022/07/15 09:28:59;;;;;;;1.85;0.40;;;22.40;72.60;;;;;;5109872;28;20458;-63
2022/07/15 09:34:27;;;;;;;1.90;0.40;;;22.10;72.70;;;;;;5098082;28;20036;-63
2022/07/15 09:36:54;;;;;;;1.80;0.50;;;21.90;72.60;;;;;;5111487;28;20040;-64
2022/07/15 09:39:24;;;;;;;2.08;0.40;;;22.10;72.70;;;;;;5113240;28;20032;-64
2022/07/15 09:41:51;;;;;;;2.10;0.43;;;22.30;73.80;;;;;;5112086;28;20039;-64
2022/07/15 09:44:21;;;;;;;1.15;0.50;;;22.40;72.40;;;;;;5111877;28;20439;-63
2022/07/15 09:46:52;;;;;;;2.38;0.40;;;22.20;72.20;;;;;;5108690;28;20043;-63
2022/07/15 09:49:32;;;;;;;1.08;0.50;;;22.00;73.70;;;;;;5109913;28;20042;-64
2022/07/15 09:52:03;;;;;;;3.05;0.68;;;22.20;72.70;;;;;;5105100;28;20132;-64
2022/07/15 09:54:34;;;;;;;2.78;0.60;;;22.30;73.20;;;;;;5111494;28;20039;-64
2022/07/15 09:57:03;;;;;;;1.90;0.50;;;22.30;73.90;;;;;;5106325;28;20403;-64
2022/07/15 09:59:29;;;;;;;4.45;0.70;;;22.20;74.10;;;;;;5109186;28;20051;-63
2022/07/15 10:01:55;;;;;;;2.55;0.43;;;22.10;74.40;;;;;;5109134;28;20097;-64
2022/07/15 10:04:23;;;;;;;2.50;0.65;;;21.90;74.70;;;;;;5105065;28;20071;-64
2022/07/15 10:06:51;;;;;;;1.60;0.50;;;21.90;75.00;;;;;;5104732;28;20040;-63
2022/07/15 10:09:30;;;;;;;2.90;0.40;;;21.90;73.70;;;;;;5109550;28;20036;-63
2022/07/15 10:12:18;;;;;;;1.40;0.75;;;22.10;74.40;;;;;;5107530;28;20153;-64
2022/07/15 10:15:29;;;;;;;3.53;0.50;;;22.30;75.10;;;;;;5107424;28;20044;-64
2022/07/15 10:18:01;;;;;;;4.97;0.80;;;22.40;74.70;;;;;;5105535;28;20047;-64
2022/07/15 10:20:51;;;;;;;3.10;0.40;;;22.10;75.10;;;;;;5109520;28;20045;-64
2022/07/15 10:23:42;;;;;;;4.78;0.68;;;22.00;75.00;;;;;;5107738;28;20051;-63
2022/07/15 10:26:39;;;;;;;2.60;0.60;;;22.20;75.70;;;;;;5096557;28;20035;-63
2022/07/15 10:29:07;;;;;;;3.35;0.57;;;22.30;76.20;;;;;;5107933;28;20131;-63
2022/07/15 10:31:35;;;;;;;0.88;0.40;;;22.40;74.90;;;;;;5105678;28;20131;-64
2022/07/15 10:34:03;;;;;;;1.60;0.50;;;22.70;74.40;;;;;;5107815;28;20054;-64
2022/07/15 10:36:57;;;;;;;3.45;0.75;;;22.70;73.60;;;;;;5109479;28;20486;-64
2022/07/15 10:39:27;;;;;;;2.27;0.53;;;23.10;73.70;;;;;;5108953;28;20153;-64
2022/07/15 10:41:58;;;;;;;1.48;0.60;;;23.20;73.40;;;;;;5104521;28;20040;-63
2022/07/15 10:44:31;;;;;;;2.92;0.50;;;23.10;72.80;;;;;;5107540;28;20277;-64
2022/07/15 10:47:12;;;;;;;1.87;0.57;;;22.80;71.90;;;;;;5108297;28;20047;-64
2022/07/15 10:49:46;;;;;;;3.50;0.50;;;23.00;70.80;;;;;;5105334;28;20473;-63
2022/07/15 10:52:18;;;;;;;1.80;0.50;;;22.90;70.80;;;;;;5102119;28;20390;-64
2022/07/15 10:54:55;;;;;;;3.28;0.47;;;22.90;70.60;;;;;;5097333;28;20074;-64
2022/07/15 10:57:40;;;;;;;1.88;0.50;;;22.80;70.00;;;;;;5099663;28;20443;-63
2022/07/15 11:00:28;;;;;;;0.98;0.43;;;22.80;68.70;;;;;;5105160;28;20697;-64
2022/07/15 11:03:05;;;;;;;3.03;0.50;;;22.70;70.60;;;;;;5104028;28;20036;-63
2022/07/15 11:05:31;;;;;;;2.95;0.75;;;22.30;71.10;;;;;;5107564;28;20046;-63
2022/07/15 11:07:57;;;;;;;3.20;0.63;;;22.10;72.40;;;;;;5106098;28;20035;-63
2022/07/15 11:10:24;;;;;;;3.00;0.70;;;22.20;73.10;;;;;;5108012;28;20284;-64
2022/07/15 11:12:50;;;;;;;2.17;0.50;;;22.30;73.10;;;;;;5107458;28;20491;-63
2022/07/15 11:15:23;;;;;;;3.10;0.60;;;22.20;72.80;;;;;;5107561;28;20114;-63
2022/07/15 11:17:50;;;;;;;2.50;0.60;;;22.40;72.90;;;;;;5106721;28;20055;-64
2022/07/15 11:20:20;;;;;;;2.67;0.50;;;22.60;72.80;;;;;;5107060;28;20042;-64
2022/07/15 11:22:47;;;;;;;3.47;0.50;;;22.90;73.30;;;;;;5105844;28;20052;-64
2022/07/15 11:25:18;;;;;;;2.05;0.55;;;22.90;72.00;;;;;;5106956;28;20155;-64
2022/07/15 11:27:55;;;;;;;3.65;0.77;;;22.90;71.60;;;;;;5107884;28;20140;-64
2022/07/15 11:30:20;;;;;;;3.28;0.80;;;22.90;72.10;;;;;;5106938;28;20067;-64
2022/07/15 11:32:55;;;;;;;3.35;0.68;;;22.50;72.50;;;;;;5108122;28;20074;-63
2022/07/15 11:35:21;;;;;;;1.52;0.52;;;22.50;73.20;;;;;;5106759;28;20361;-63
2022/07/15 11:37:46;;;;;;;3.45;0.63;;;22.40;73.50;;;;;;5107140;28;20100;-63
2022/07/15 11:45:47;;;;;;;2.80;0.65;;;22.20;74.50;;;;;;5101964;28;20074;-63
2022/07/15 11:48:13;;;;;;;3.40;0.65;;;22.50;74.50;;;;;;5105693;28;20067;-63
2022/07/15 11:50:53;;;;;;;3.78;0.77;;;22.60;73.30;;;;;;5107238;27;20150;-64
2022/07/15 11:53:19;;;;;;;4.38;0.70;;;23.00;73.20;;;;;;5095487;28;20397;-64
2022/07/15 11:55:58;;;;;;;4.03;0.70;;;23.20;72.90;;;;;;5107605;28;20458;-63
2022/07/15 11:58:36;;;;;;;2.45;0.57;;;23.30;71.40;;;;;;5106701;28;20394;-63
2022/07/15 12:01:08;;;;;;;2.72;0.60;;;23.20;72.10;;;;;;5105437;28;20375;-63
2022/07/15 12:03:45;;;;;;;3.03;0.60;;;22.90;73.20;;;;;;5108764;28;20044;-63
2022/07/15 12:06:15;;;;;;;2.70;0.80;;;23.10;74.10;;;;;;5105771;28;20044;-63
2022/07/15 12:08:53;;;;;;;4.00;0.70;;;22.90;72.70;;;;;;5108774;28;20040;-63
2022/07/15 12:11:23;;;;;;;4.15;0.60;;;23.00;72.80;;;;;;5106491;28;20070;-64
2022/07/15 12:13:58;;;;;;;2.75;0.60;;;23.20;72.10;;;;;;5105490;28;20066;-64
2022/07/15 12:16:27;;;;;;;3.38;0.98;;;23.60;71.60;;;;;;5103938;28;20171;-63
2022/07/15 12:18:54;;;;;;;2.38;0.50;;;23.80;71.10;;;;;;5106881;28;20122;-64
2022/07/15 12:21:21;;;;;;;2.22;0.65;;;24.00;71.20;;;;;;5104611;28;20462;-63
2022/07/15 12:24:03;;;;;;;2.55;0.70;;;24.30;70.00;;;;;;5106444;28;20475;-63
2022/07/15 12:26:29;;;;;;;3.47;0.70;;;24.30;69.20;;;;;;5105733;28;20044;-64
2022/07/15 12:29:00;;;;;;;1.73;0.45;;;24.30;69.10;;;;;;5107406;28;20485;-64
2022/07/15 12:31:31;;;;;;;3.42;0.68;;;24.10;68.70;;;;;;5106432;28;20040;-63
2022/07/15 12:33:57;;;;;;;2.15;0.60;;;24.10;68.20;;;;;;5108129;28;20040;-63
2022/07/15 12:36:25;;;;;;;2.47;0.50;;;24.10;67.70;;;;;;5109712;28;20097;-63
2022/07/15 12:39:06;;;;;;;3.10;0.68;;;24.00;68.10;;;;;;5109831;28;20188;-64
2022/07/15 12:41:33;;;;;;;2.80;0.60;;;24.10;68.00;;;;;;5107393;28;20538;-63
2022/07/15 12:44:01;;;;;;;3.03;0.60;;;24.00;68.40;;;;;;5109200;28;20461;-64
2022/07/15 12:46:51;;;;;;;2.42;0.47;;;24.00;68.60;;;;;;5108289;28;20315;-64
2022/07/15 12:49:36;;;;;;;1.70;0.47;;;23.90;68.90;;;;;;5109592;28;20399;-64
2022/07/15 12:52:38;;;;;;;1.95;0.60;;;23.80;68.70;;;;;;5109361;28;20414;-64
2022/07/15 12:55:19;;;;;;;2.25;0.50;;;23.80;68.50;;;;;;5096506;28;20059;-64
2022/07/15 12:57:45;;;;;;;1.52;0.47;;;23.90;68.60;;;;;;5105307;28;20143;-63
2022/07/15 13:00:13;;;;;;;2.35;0.30;;;23.90;68.50;;;;;;5109534;28;20043;-63
2022/07/15 13:03:04;;;;;;;2.72;0.70;;;23.90;67.90;;;;;;5109498;28;20070;-63
2022/07/15 13:05:44;;;;;;;2.67;0.63;;;24.30;68.70;;;;;;5111417;28;20390;-64
2022/07/15 13:08:22;;;;;;;2.75;0.57;;;24.70;68.40;;;;;;5109908;28;20058;-63